Main page
METAR-TAF:

METAR-TAF

Airports :

Amsterdam Airport Schiphol

Amsterdam, Netherlands

latitude: 52-18N, longitude: 004-46E, elevation: -4 m

Current weather observation

The report was made 10 minutes ago, at 23:55 UTC
Wind 7 kt from the East/Northeast, varying between North/Northeast and East
Temperature 18°C
Humidity 77%
Pressure 1028 hPa
Visibility 10 km or more
no clouds below 1500 m and no cumulonimbus

METAR: EHAM 092355Z 06007KT 020V080 CAVOK 18/14 Q1028 NOSIG

Time: 02:05 (00:05 UTC)

Forecast

The report was made 1 hour and 13 minutes ago, at 22:52 UTC
Forecast valid from 10 at 00 UTC to 11 at 06 UTC
Wind 10 kt from the Northeast
Visibility 10 km or more
no clouds below 1500 m and no cumulonimbus

TAF: EHAM 092252Z 1000/1106 05010KT CAVOK

Weather observations and forecasts of more than 4000 airports (METAR and TAF reports).

The available stations are represented by yellow and red dots on the map.

Hover mouse over dot to see the name of the station.

Then click to see weather observations and forecasts.

To change the map : click on the green buttons with a black cross to zoom in, on the green button with a dash to zoom out, or on the green arrows for adjacent maps.


METAR-TAF: